sensor_id;sensor_type;location;lat;lon;timestamp;pressure;altitude;pressure_sealevel;temperature;humidity
62926;BME280;55732;52.248;-0.844;2023-05-23T00:01:46;101760.31;;;11.94;58.01
62926;BME280;55732;52.248;-0.844;2023-05-23T00:04:12;101757.12;;;11.93;58.23
62926;BME280;55732;52.248;-0.844;2023-05-23T00:06:44;101752.34;;;11.89;58.43
62926;BME280;55732;52.248;-0.844;2023-05-23T00:09:15;101751.79;;;11.88;58.69
62926;BME280;55732;52.248;-0.844;2023-05-23T00:11:41;101753.04;;;11.89;58.75
62926;BME280;55732;52.248;-0.844;2023-05-23T00:14:11;101754.47;;;11.90;59.04
62926;BME280;55732;52.248;-0.844;2023-05-23T00:16:38;101755.54;;;11.91;59.19
62926;BME280;55732;52.248;-0.844;2023-05-23T00:19:06;101759.02;;;11.88;59.22
62926;BME280;55732;52.248;-0.844;2023-05-23T00:21:32;101763.77;;;11.87;59.45
62926;BME280;55732;52.248;-0.844;2023-05-23T00:23:58;101761.80;;;11.86;59.47
62926;BME280;55732;52.248;-0.844;2023-05-23T00:26:24;101756.66;;;11.83;59.43
62926;BME280;55732;52.248;-0.844;2023-05-23T00:28:49;101758.40;;;11.82;60.04
62926;BME280;55732;52.248;-0.844;2023-05-23T00:31:15;101756.98;;;11.81;60.42
62926;BME280;55732;52.248;-0.844;2023-05-23T00:33:41;101754.15;;;11.80;60.75
62926;BME280;55732;52.248;-0.844;2023-05-23T00:36:07;101749.21;;;11.79;60.87
62926;BME280;55732;52.248;-0.844;2023-05-23T00:38:33;101751.66;;;11.77;61.11
62926;BME280;55732;52.248;-0.844;2023-05-23T00:40:59;101751.96;;;11.75;61.03
62926;BME280;55732;52.248;-0.844;2023-05-23T00:43:25;101749.79;;;11.74;61.41
62926;BME280;55732;52.248;-0.844;2023-05-23T00:45:51;101753.65;;;11.72;61.67
62926;BME280;55732;52.248;-0.844;2023-05-23T00:48:16;101752.21;;;11.70;61.71
62926;BME280;55732;52.248;-0.844;2023-05-23T00:50:42;101752.20;;;11.70;61.97
62926;BME280;55732;52.248;-0.844;2023-05-23T00:53:08;101752.91;;;11.68;62.09
62926;BME280;55732;52.248;-0.844;2023-05-23T00:55:34;101755.20;;;11.68;62.36
62926;BME280;55732;52.248;-0.844;2023-05-23T00:58:00;101757.66;;;11.67;62.32
62926;BME280;55732;52.248;-0.844;2023-05-23T01:00:26;101759.05;;;11.66;62.53
62926;BME280;55732;52.248;-0.844;2023-05-23T01:02:52;101758.52;;;11.65;62.43
62926;BME280;55732;52.248;-0.844;2023-05-23T01:05:18;101752.98;;;11.62;62.45
62926;BME280;55732;52.248;-0.844;2023-05-23T01:07:50;101755.45;;;11.61;62.61
62926;BME280;55732;52.248;-0.844;2023-05-23T01:10:19;101754.52;;;11.57;62.49
62926;BME280;55732;52.248;-0.844;2023-05-23T01:18:38;101757.22;;;11.48;63.22
62926;BME280;55732;52.248;-0.844;2023-05-23T01:21:11;101757.70;;;11.44;63.30
62926;BME280;55732;52.248;-0.844;2023-05-23T01:29:09;101764.20;;;11.31;63.75
62926;BME280;55732;52.248;-0.844;2023-05-23T01:31:41;101767.14;;;11.27;64.20
62926;BME280;55732;52.248;-0.844;2023-05-23T01:34:08;101765.51;;;11.24;64.64
62926;BME280;55732;52.248;-0.844;2023-05-23T01:36:39;101761.98;;;11.23;64.79
62926;BME280;55732;52.248;-0.844;2023-05-23T01:39:06;101763.02;;;11.23;64.67
62926;BME280;55732;52.248;-0.844;2023-05-23T01:41:32;101764.05;;;11.21;64.75
62926;BME280;55732;52.248;-0.844;2023-05-23T01:43:57;101762.99;;;11.20;64.94
62926;BME280;55732;52.248;-0.844;2023-05-23T01:46:24;101765.80;;;11.19;65.25
62926;BME280;55732;52.248;-0.844;2023-05-23T01:48:52;101765.26;;;11.18;65.29
62926;BME280;55732;52.248;-0.844;2023-05-23T01:51:21;101764.36;;;11.18;65.35
62926;BME280;55732;52.248;-0.844;2023-05-23T01:53:50;101761.00;;;11.16;65.64
62926;BME280;55732;52.248;-0.844;2023-05-23T01:56:16;101764.15;;;11.15;65.88
62926;BME280;55732;52.248;-0.844;2023-05-23T01:58:42;101768.34;;;11.13;65.96
62926;BME280;55732;52.248;-0.844;2023-05-23T02:01:08;101768.31;;;11.12;66.05
62926;BME280;55732;52.248;-0.844;2023-05-23T02:03:34;101769.69;;;11.10;66.12
62926;BME280;55732;52.248;-0.844;2023-05-23T02:05:59;101771.63;;;11.09;66.33
62926;BME280;55732;52.248;-0.844;2023-05-23T02:08:25;101771.30;;;11.11;66.39
62926;BME280;55732;52.248;-0.844;2023-05-23T02:10:50;101766.91;;;11.12;66.62
62926;BME280;55732;52.248;-0.844;2023-05-23T02:13:16;101769.05;;;11.13;66.62
62926;BME280;55732;52.248;-0.844;2023-05-23T02:15:41;101771.71;;;11.15;66.71
62926;BME280;55732;52.248;-0.844;2023-05-23T02:18:07;101772.96;;;11.15;66.57
62926;BME280;55732;52.248;-0.844;2023-05-23T02:20:32;101765.90;;;11.15;66.47
62926;BME280;55732;52.248;-0.844;2023-05-23T02:22:58;101765.22;;;11.16;66.72
62926;BME280;55732;52.248;-0.844;2023-05-23T02:25:23;101765.91;;;11.15;66.71
62926;BME280;55732;52.248;-0.844;2023-05-23T02:27:48;101772.27;;;11.15;67.01
62926;BME280;55732;52.248;-0.844;2023-05-23T02:30:14;101770.32;;;11.15;67.12
62926;BME280;55732;52.248;-0.844;2023-05-23T02:32:39;101769.81;;;11.16;67.16
62926;BME280;55732;52.248;-0.844;2023-05-23T02:35:05;101773.89;;;11.18;67.22
62926;BME280;55732;52.248;-0.844;2023-05-23T02:37:30;101774.63;;;11.21;67.37
62926;BME280;55732;52.248;-0.844;2023-05-23T02:39:56;101778.16;;;11.21;67.07
62926;BME280;55732;52.248;-0.844;2023-05-23T02:42:22;101781.51;;;11.21;67.15
62926;BME280;55732;52.248;-0.844;2023-05-23T02:44:47;101783.48;;;11.24;67.31
62926;BME280;55732;52.248;-0.844;2023-05-23T02:47:12;101780.54;;;11.26;67.11
62926;BME280;55732;52.248;-0.844;2023-05-23T02:49:38;101788.30;;;11.27;67.01
62926;BME280;55732;52.248;-0.844;2023-05-23T02:52:03;101777.88;;;11.26;67.30
62926;BME280;55732;52.248;-0.844;2023-05-23T02:54:29;101777.70;;;11.26;67.21
62926;BME280;55732;52.248;-0.844;2023-05-23T02:56:55;101778.77;;;11.27;67.37
62926;BME280;55732;52.248;-0.844;2023-05-23T02:59:21;101778.78;;;11.27;67.56
62926;BME280;55732;52.248;-0.844;2023-05-23T03:01:47;101777.05;;;11.29;67.81
62926;BME280;55732;52.248;-0.844;2023-05-23T03:04:13;101774.62;;;11.31;68.04
62926;BME280;55732;52.248;-0.844;2023-05-23T03:06:38;101774.42;;;11.30;67.94
62926;BME280;55732;52.248;-0.844;2023-05-23T03:09:07;101777.60;;;11.30;68.18
62926;BME280;55732;52.248;-0.844;2023-05-23T03:11:33;101783.79;;;11.31;68.02
62926;BME280;55732;52.248;-0.844;2023-05-23T03:13:58;101781.67;;;11.31;68.09
62926;BME280;55732;52.248;-0.844;2023-05-23T03:16:24;101782.56;;;11.32;68.11
62926;BME280;55732;52.248;-0.844;2023-05-23T03:18:49;101787.50;;;11.31;68.27
62926;BME280;55732;52.248;-0.844;2023-05-23T03:21:15;101790.65;;;11.30;68.36
62926;BME280;55732;52.248;-0.844;2023-05-23T03:23:40;101784.77;;;11.26;68.44
62926;BME280;55732;52.248;-0.844;2023-05-23T03:26:06;101786.67;;;11.25;68.31
62926;BME280;55732;52.248;-0.844;2023-05-23T03:28:31;101782.56;;;11.21;68.49
62926;BME280;55732;52.248;-0.844;2023-05-23T03:30:57;101781.13;;;11.18;68.60
62926;BME280;55732;52.248;-0.844;2023-05-23T03:33:23;101780.02;;;11.16;68.69
62926;BME280;55732;52.248;-0.844;2023-05-23T03:35:49;101781.55;;;11.13;68.79
62926;BME280;55732;52.248;-0.844;2023-05-23T03:38:15;101777.09;;;11.09;68.71
62926;BME280;55732;52.248;-0.844;2023-05-23T03:40:41;101775.62;;;11.05;68.80
62926;BME280;55732;52.248;-0.844;2023-05-23T03:43:07;101781.02;;;11.02;68.80
62926;BME280;55732;52.248;-0.844;2023-05-23T03:45:33;101784.34;;;11.00;68.97
62926;BME280;55732;52.248;-0.844;2023-05-23T03:47:59;101789.08;;;10.99;68.99
62926;BME280;55732;52.248;-0.844;2023-05-23T03:50:25;101789.95;;;10.98;69.09
62926;BME280;55732;52.248;-0.844;2023-05-23T03:52:51;101793.83;;;10.98;69.18
62926;BME280;55732;52.248;-0.844;2023-05-23T03:55:16;101793.47;;;10.97;69.16
62926;BME280;55732;52.248;-0.844;2023-05-23T03:57:47;101796.12;;;10.98;69.24
62926;BME280;55732;52.248;-0.844;2023-05-23T04:00:14;101802.81;;;10.99;69.32
62926;BME280;55732;52.248;-0.844;2023-05-23T04:02:39;101804.23;;;10.99;69.49
62926;BME280;55732;52.248;-0.844;2023-05-23T04:05:05;101806.56;;;11.01;69.50
62926;BME280;55732;52.248;-0.844;2023-05-23T04:07:32;101805.89;;;11.03;69.43
62926;BME280;55732;52.248;-0.844;2023-05-23T04:10:01;101806.24;;;11.03;69.49
62926;BME280;55732;52.248;-0.844;2023-05-23T04:12:27;101802.04;;;11.04;69.47
62926;BME280;55732;52.248;-0.844;2023-05-23T04:14:55;101807.15;;;11.04;69.30
62926;BME280;55732;52.248;-0.844;2023-05-23T04:17:20;101811.34;;;11.02;69.61
62926;BME280;55732;52.248;-0.844;2023-05-23T04:19:47;101810.45;;;11.01;69.75
62926;BME280;55732;52.248;-0.844;2023-05-23T04:22:12;101810.63;;;11.01;69.71
62926;BME280;55732;52.248;-0.844;2023-05-23T04:24:37;101808.17;;;11.02;69.67
62926;BME280;55732;52.248;-0.844;2023-05-23T04:27:03;101806.73;;;11.01;69.94
62926;BME280;55732;52.248;-0.844;2023-05-23T04:29:29;101805.50;;;11.01;70.02
62926;BME280;55732;52.248;-0.844;2023-05-23T04:31:56;101806.25;;;11.03;69.74
62926;BME280;55732;52.248;-0.844;2023-05-23T04:34:22;101805.19;;;11.03;69.75
62926;BME280;55732;52.248;-0.844;2023-05-23T04:36:48;101802.66;;;11.00;69.95
62926;BME280;55732;52.248;-0.844;2023-05-23T04:39:14;101803.86;;;10.98;70.27
62926;BME280;55732;52.248;-0.844;2023-05-23T04:41:40;101800.64;;;10.94;70.56
62926;BME280;55732;52.248;-0.844;2023-05-23T04:44:06;101800.05;;;10.91;70.68
62926;BME280;55732;52.248;-0.844;2023-05-23T04:46:34;101808.19;;;10.93;70.38
62926;BME280;55732;52.248;-0.844;2023-05-23T04:49:01;101816.02;;;10.96;70.27
62926;BME280;55732;52.248;-0.844;2023-05-23T04:51:27;101820.29;;;11.00;70.06
62926;BME280;55732;52.248;-0.844;2023-05-23T04:53:52;101822.89;;;11.06;70.02
62926;BME280;55732;52.248;-0.844;2023-05-23T04:56:18;101820.16;;;11.13;69.84
62926;BME280;55732;52.248;-0.844;2023-05-23T04:58:47;101819.39;;;11.20;69.68
62926;BME280;55732;52.248;-0.844;2023-05-23T05:01:13;101822.50;;;11.26;69.57
62926;BME280;55732;52.248;-0.844;2023-05-23T05:03:39;101823.11;;;11.31;69.45
62926;BME280;55732;52.248;-0.844;2023-05-23T05:06:05;101821.35;;;11.32;69.30
62926;BME280;55732;52.248;-0.844;2023-05-23T05:08:31;101832.61;;;11.30;69.43
62926;BME280;55732;52.248;-0.844;2023-05-23T05:10:57;101831.20;;;11.31;69.46
62926;BME280;55732;52.248;-0.844;2023-05-23T05:13:22;101838.23;;;11.29;69.47
62926;BME280;55732;52.248;-0.844;2023-05-23T05:15:48;101833.33;;;11.31;69.31
62926;BME280;55732;52.248;-0.844;2023-05-23T05:18:13;101836.19;;;11.34;69.53
62926;BME280;55732;52.248;-0.844;2023-05-23T05:20:39;101837.84;;;11.38;69.39
62926;BME280;55732;52.248;-0.844;2023-05-23T05:23:04;101837.70;;;11.40;69.45
62926;BME280;55732;52.248;-0.844;2023-05-23T05:25:29;101840.05;;;11.44;69.41
62926;BME280;55732;52.248;-0.844;2023-05-23T05:27:59;101841.34;;;11.48;69.14
62926;BME280;55732;52.248;-0.844;2023-05-23T05:30:27;101843.55;;;11.53;69.05
62926;BME280;55732;52.248;-0.844;2023-05-23T05:32:52;101844.91;;;11.62;68.98
62926;BME280;55732;52.248;-0.844;2023-05-23T05:35:18;101851.54;;;11.68;68.77
62926;BME280;55732;52.248;-0.844;2023-05-23T05:37:43;101850.84;;;11.71;68.61
62926;BME280;55732;52.248;-0.844;2023-05-23T05:40:09;101851.65;;;11.75;68.11
62926;BME280;55732;52.248;-0.844;2023-05-23T05:42:34;101851.54;;;11.78;68.16
62926;BME280;55732;52.248;-0.844;2023-05-23T05:45:00;101849.52;;;11.75;67.97
62926;BME280;55732;52.248;-0.844;2023-05-23T05:47:26;101848.77;;;11.73;68.08
62926;BME280;55732;52.248;-0.844;2023-05-23T05:49:51;101842.61;;;11.74;68.02
62926;BME280;55732;52.248;-0.844;2023-05-23T05:52:16;101843.63;;;11.72;67.79
62926;BME280;55732;52.248;-0.844;2023-05-23T05:54:42;101840.96;;;11.71;68.05
62926;BME280;55732;52.248;-0.844;2023-05-23T05:57:07;101840.83;;;11.73;68.05
62926;BME280;55732;52.248;-0.844;2023-05-23T05:59:33;101849.42;;;11.79;67.85
62926;BME280;55732;52.248;-0.844;2023-05-23T06:01:59;101850.16;;;11.82;67.63
62926;BME280;55732;52.248;-0.844;2023-05-23T06:04:24;101846.36;;;11.86;67.42
62926;BME280;55732;52.248;-0.844;2023-05-23T06:06:49;101852.79;;;11.93;67.10
62926;BME280;55732;52.248;-0.844;2023-05-23T06:09:16;101858.91;;;12.02;67.22
62926;BME280;55732;52.248;-0.844;2023-05-23T06:11:42;101852.67;;;12.10;66.96
62926;BME280;55732;52.248;-0.844;2023-05-23T06:14:07;101855.38;;;12.14;66.79
62926;BME280;55732;52.248;-0.844;2023-05-23T06:16:34;101854.33;;;12.15;66.61
62926;BME280;55732;52.248;-0.844;2023-05-23T06:18:59;101850.44;;;12.16;66.51
62926;BME280;55732;52.248;-0.844;2023-05-23T06:21:25;101844.27;;;12.16;66.50
62926;BME280;55732;52.248;-0.844;2023-05-23T06:23:50;101843.74;;;12.15;66.54
62926;BME280;55732;52.248;-0.844;2023-05-23T06:26:16;101845.67;;;12.16;66.67
62926;BME280;55732;52.248;-0.844;2023-05-23T06:28:42;101845.75;;;12.21;66.22
62926;BME280;55732;52.248;-0.844;2023-05-23T06:31:07;101846.16;;;12.25;65.93
62926;BME280;55732;52.248;-0.844;2023-05-23T06:33:34;101846.42;;;12.33;65.70
62926;BME280;55732;52.248;-0.844;2023-05-23T06:35:59;101849.30;;;12.39;65.38
62926;BME280;55732;52.248;-0.844;2023-05-23T06:38:28;101849.72;;;12.44;65.54
62926;BME280;55732;52.248;-0.844;2023-05-23T06:40:54;101846.39;;;12.46;65.20
62926;BME280;55732;52.248;-0.844;2023-05-23T06:43:20;101849.96;;;12.51;64.93
62926;BME280;55732;52.248;-0.844;2023-05-23T06:45:45;101851.20;;;12.51;64.90
62926;BME280;55732;52.248;-0.844;2023-05-23T06:48:14;101848.23;;;12.52;64.85
62926;BME280;55732;52.248;-0.844;2023-05-23T06:50:39;101851.42;;;12.55;64.91
62926;BME280;55732;52.248;-0.844;2023-05-23T06:53:05;101851.67;;;12.59;64.65
62926;BME280;55732;52.248;-0.844;2023-05-23T06:55:31;101853.30;;;12.64;64.43
62926;BME280;55732;52.248;-0.844;2023-05-23T06:57:58;101855.48;;;12.69;64.17
62926;BME280;55732;52.248;-0.844;2023-05-23T07:00:24;101850.35;;;12.70;63.87
62926;BME280;55732;52.248;-0.844;2023-05-23T07:02:50;101853.93;;;12.73;64.07
62926;BME280;55732;52.248;-0.844;2023-05-23T07:05:15;101854.37;;;12.82;63.95
62926;BME280;55732;52.248;-0.844;2023-05-23T07:07:41;101855.00;;;12.92;63.50
62926;BME280;55732;52.248;-0.844;2023-05-23T07:10:08;101856.67;;;13.01;63.24
62926;BME280;55732;52.248;-0.844;2023-05-23T07:12:34;101861.08;;;13.16;62.94
62926;BME280;55732;52.248;-0.844;2023-05-23T07:14:59;101862.28;;;13.32;62.30
62926;BME280;55732;52.248;-0.844;2023-05-23T07:17:24;101870.55;;;13.49;62.01
62926;BME280;55732;52.248;-0.844;2023-05-23T07:19:50;101866.90;;;13.59;61.48
62926;BME280;55732;52.248;-0.844;2023-05-23T07:22:15;101867.53;;;13.73;61.21
62926;BME280;55732;52.248;-0.844;2023-05-23T07:24:40;101865.35;;;13.94;60.99
62926;BME280;55732;52.248;-0.844;2023-05-23T07:27:06;101863.85;;;14.13;60.27
62926;BME280;55732;52.248;-0.844;2023-05-23T07:29:31;101868.27;;;14.50;59.69
62926;BME280;55732;52.248;-0.844;2023-05-23T07:31:57;101858.06;;;14.76;58.81
62926;BME280;55732;52.248;-0.844;2023-05-23T07:34:23;101857.03;;;14.91;58.58
62926;BME280;55732;52.248;-0.844;2023-05-23T07:36:51;101859.88;;;15.08;57.22
62926;BME280;55732;52.248;-0.844;2023-05-23T07:39:16;101858.83;;;15.09;56.77
62926;BME280;55732;52.248;-0.844;2023-05-23T07:41:46;101859.54;;;15.32;56.92
62926;BME280;55732;52.248;-0.844;2023-05-23T07:44:12;101866.99;;;15.60;54.85
62926;BME280;55732;52.248;-0.844;2023-05-23T07:46:37;101866.23;;;15.86;54.66
62926;BME280;55732;52.248;-0.844;2023-05-23T07:49:02;101860.66;;;16.11;54.40
62926;BME280;55732;52.248;-0.844;2023-05-23T07:51:28;101857.17;;;16.36;54.42
62926;BME280;55732;52.248;-0.844;2023-05-23T07:53:53;101853.56;;;16.49;53.00
62926;BME280;55732;52.248;-0.844;2023-05-23T07:56:19;101851.30;;;16.39;52.08
62926;BME280;55732;52.248;-0.844;2023-05-23T07:58:45;101852.44;;;16.23;52.05
62926;BME280;55732;52.248;-0.844;2023-05-23T08:01:10;101850.05;;;16.00;51.96
62926;BME280;55732;52.248;-0.844;2023-05-23T08:03:36;101848.65;;;15.90;52.48
62926;BME280;55732;52.248;-0.844;2023-05-23T08:06:01;101851.77;;;16.11;52.17
62926;BME280;55732;52.248;-0.844;2023-05-23T08:08:27;101848.75;;;17.47;50.11
62926;BME280;55732;52.248;-0.844;2023-05-23T08:10:52;101846.91;;;18.73;48.26
62926;BME280;55732;52.248;-0.844;2023-05-23T08:13:17;101850.17;;;20.23;46.56
62926;BME280;55732;52.248;-0.844;2023-05-23T08:15:43;101854.95;;;21.69;43.81
62926;BME280;55732;52.248;-0.844;2023-05-23T08:18:08;101853.33;;;23.13;41.40
62926;BME280;55732;52.248;-0.844;2023-05-23T08:20:34;101852.57;;;24.08;39.65
62926;BME280;55732;52.248;-0.844;2023-05-23T08:23:00;101851.34;;;24.46;38.82
62926;BME280;55732;52.248;-0.844;2023-05-23T08:25:27;101847.54;;;24.65;37.01
62926;BME280;55732;52.248;-0.844;2023-05-23T08:27:57;101848.29;;;24.77;37.17
62926;BME280;55732;52.248;-0.844;2023-05-23T08:30:23;101854.66;;;24.94;36.13
62926;BME280;55732;52.248;-0.844;2023-05-23T08:32:53;101858.63;;;25.54;35.57
62926;BME280;55732;52.248;-0.844;2023-05-23T08:35:19;101863.98;;;26.63;34.44
62926;BME280;55732;52.248;-0.844;2023-05-23T08:37:45;101870.85;;;27.43;32.13
62926;BME280;55732;52.248;-0.844;2023-05-23T08:40:21;101869.96;;;28.26;30.57
62926;BME280;55732;52.248;-0.844;2023-05-23T08:42:48;101865.09;;;28.81;30.99
62926;BME280;55732;52.248;-0.844;2023-05-23T08:45:14;101866.91;;;29.81;30.30
62926;BME280;55732;52.248;-0.844;2023-05-23T08:47:44;101872.88;;;30.58;27.98
62926;BME280;55732;52.248;-0.844;2023-05-23T08:50:15;101877.73;;;30.12;28.42
62926;BME280;55732;52.248;-0.844;2023-05-23T08:52:54;101879.35;;;30.01;28.07
62926;BME280;55732;52.248;-0.844;2023-05-23T08:55:23;101881.66;;;29.51;27.84
62926;BME280;55732;52.248;-0.844;2023-05-23T08:57:52;101881.20;;;28.59;28.94
62926;BME280;55732;52.248;-0.844;2023-05-23T09:00:18;101879.88;;;27.99;28.18
62926;BME280;55732;52.248;-0.844;2023-05-23T09:02:45;101883.80;;;26.79;29.20
62926;BME280;55732;52.248;-0.844;2023-05-23T09:05:14;101881.30;;;25.80;30.85
62926;BME280;55732;52.248;-0.844;2023-05-23T09:07:40;101887.83;;;24.80;31.25
62926;BME280;55732;52.248;-0.844;2023-05-23T09:10:07;101890.17;;;23.62;32.48
62926;BME280;55732;52.248;-0.844;2023-05-23T09:12:34;101896.19;;;22.65;33.81
62926;BME280;55732;52.248;-0.844;2023-05-23T09:15:02;101895.26;;;22.04;34.19
62926;BME280;55732;52.248;-0.844;2023-05-23T09:17:30;101885.80;;;21.56;34.33
62926;BME280;55732;52.248;-0.844;2023-05-23T09:19:57;101880.58;;;21.14;34.81
62926;BME280;55732;52.248;-0.844;2023-05-23T09:22:23;101868.49;;;21.10;35.22
62926;BME280;55732;52.248;-0.844;2023-05-23T09:24:54;101860.99;;;21.38;35.70
62926;BME280;55732;52.248;-0.844;2023-05-23T09:27:19;101868.54;;;21.91;35.35
62926;BME280;55732;52.248;-0.844;2023-05-23T09:29:45;101863.29;;;23.70;32.84
62926;BME280;55732;52.248;-0.844;2023-05-23T09:32:16;101860.98;;;25.05;31.00
62926;BME280;55732;52.248;-0.844;2023-05-23T09:34:57;101855.91;;;26.76;29.34
62926;BME280;55732;52.248;-0.844;2023-05-23T09:37:30;101850.65;;;28.27;28.34
62926;BME280;55732;52.248;-0.844;2023-05-23T09:40:01;101851.44;;;29.40;26.20
62926;BME280;55732;52.248;-0.844;2023-05-23T09:42:31;101861.73;;;30.01;24.68
62926;BME280;55732;52.248;-0.844;2023-05-23T09:45:01;101864.02;;;30.32;24.35
62926;BME280;55732;52.248;-0.844;2023-05-23T09:47:26;101865.47;;;30.71;24.57
62926;BME280;55732;52.248;-0.844;2023-05-23T09:49:52;101864.98;;;31.40;24.79
62926;BME280;55732;52.248;-0.844;2023-05-23T09:52:18;101866.16;;;32.15;23.74
62926;BME280;55732;52.248;-0.844;2023-05-23T09:54:46;101867.48;;;32.50;22.73
62926;BME280;55732;52.248;-0.844;2023-05-23T09:57:14;101864.02;;;32.72;23.21
62926;BME280;55732;52.248;-0.844;2023-05-23T09:59:48;101860.88;;;32.97;22.77
62926;BME280;55732;52.248;-0.844;2023-05-23T10:02:33;101865.90;;;33.11;22.32
62926;BME280;55732;52.248;-0.844;2023-05-23T10:05:10;101863.76;;;33.22;21.87
62926;BME280;55732;52.248;-0.844;2023-05-23T10:07:39;101864.16;;;33.12;22.18
62926;BME280;55732;52.248;-0.844;2023-05-23T10:10:07;101867.88;;;31.58;22.78
62926;BME280;55732;52.248;-0.844;2023-05-23T10:15:04;101869.92;;;28.16;26.16
62926;BME280;55732;52.248;-0.844;2023-05-23T10:17:33;101869.45;;;26.91;26.96
62926;BME280;55732;52.248;-0.844;2023-05-23T10:20:09;101872.47;;;25.71;28.17
62926;BME280;55732;52.248;-0.844;2023-05-23T10:22:37;101879.21;;;24.79;28.84
62926;BME280;55732;52.248;-0.844;2023-05-23T10:25:04;101882.04;;;23.89;29.89
62926;BME280;55732;52.248;-0.844;2023-05-23T10:27:30;101882.92;;;23.05;30.91
62926;BME280;55732;52.248;-0.844;2023-05-23T10:29:57;101885.18;;;22.43;31.70
62926;BME280;55732;52.248;-0.844;2023-05-23T10:32:24;101884.30;;;21.85;32.50
62926;BME280;55732;52.248;-0.844;2023-05-23T10:35:09;101882.36;;;21.36;33.28
62926;BME280;55732;52.248;-0.844;2023-05-23T10:37:58;101880.01;;;21.00;34.00
62926;BME280;55732;52.248;-0.844;2023-05-23T10:44:19;101881.61;;;20.62;35.64
62926;BME280;55732;52.248;-0.844;2023-05-23T10:46:20;101881.73;;;20.64;36.03
62926;BME280;55732;52.248;-0.844;2023-05-23T10:48:54;101883.02;;;20.53;36.44
62926;BME280;55732;52.248;-0.844;2023-05-23T10:51:21;101882.83;;;20.38;36.72
62926;BME280;55732;52.248;-0.844;2023-05-23T10:53:52;101882.00;;;20.16;36.86
62926;BME280;55732;52.248;-0.844;2023-05-23T10:56:20;101883.16;;;19.93;37.26
62926;BME280;55732;52.248;-0.844;2023-05-23T10:58:55;101878.95;;;19.80;37.78
62926;BME280;55732;52.248;-0.844;2023-05-23T11:01:23;101883.31;;;19.76;38.29
62926;BME280;55732;52.248;-0.844;2023-05-23T11:03:51;101882.22;;;19.77;38.32
62926;BME280;55732;52.248;-0.844;2023-05-23T11:09:18;101881.46;;;19.59;38.66
62926;BME280;55732;52.248;-0.844;2023-05-23T11:17:17;101878.25;;;19.15;40.36
62926;BME280;55732;52.248;-0.844;2023-05-23T11:20:01;101880.17;;;19.18;40.38
62926;BME280;55732;52.248;-0.844;2023-05-23T11:22:30;101876.75;;;19.09;40.03
62926;BME280;55732;52.248;-0.844;2023-05-23T11:24:56;101881.33;;;19.02;40.31
62926;BME280;55732;52.248;-0.844;2023-05-23T11:27:27;101880.84;;;18.87;40.52
62926;BME280;55732;52.248;-0.844;2023-05-23T11:30:00;101879.70;;;18.79;40.55
62926;BME280;55732;52.248;-0.844;2023-05-23T11:32:28;101878.54;;;18.86;41.11
62926;BME280;55732;52.248;-0.844;2023-05-23T11:34:58;101878.02;;;18.96;40.98
62926;BME280;55732;52.248;-0.844;2023-05-23T11:37:24;101875.48;;;19.10;40.67
62926;BME280;55732;52.248;-0.844;2023-05-23T11:39:50;101874.89;;;19.35;40.84
62926;BME280;55732;52.248;-0.844;2023-05-23T11:42:15;101877.19;;;19.59;40.35
62926;BME280;55732;52.248;-0.844;2023-05-23T11:44:40;101869.94;;;19.64;40.05
62926;BME280;55732;52.248;-0.844;2023-05-23T11:47:06;101863.31;;;19.65;40.13
62926;BME280;55732;52.248;-0.844;2023-05-23T11:49:37;101858.98;;;19.68;40.12
62926;BME280;55732;52.248;-0.844;2023-05-23T11:52:04;101857.40;;;19.75;40.26
62926;BME280;55732;52.248;-0.844;2023-05-23T11:54:31;101856.11;;;19.78;40.04
62926;BME280;55732;52.248;-0.844;2023-05-23T11:56:57;101855.58;;;19.87;40.06
62926;BME280;55732;52.248;-0.844;2023-05-23T11:59:25;101856.66;;;19.96;39.83
62926;BME280;55732;52.248;-0.844;2023-05-23T12:01:52;101853.88;;;19.92;39.98
62926;BME280;55732;52.248;-0.844;2023-05-23T12:04:18;101855.12;;;19.92;40.05
62926;BME280;55732;52.248;-0.844;2023-05-23T12:06:47;101854.59;;;20.01;39.96
62926;BME280;55732;52.248;-0.844;2023-05-23T12:09:14;101858.95;;;20.06;39.88
62926;BME280;55732;52.248;-0.844;2023-05-23T12:11:40;101858.23;;;20.06;39.60
62926;BME280;55732;52.248;-0.844;2023-05-23T12:14:07;101855.91;;;20.06;39.70
62926;BME280;55732;52.248;-0.844;2023-05-23T12:16:33;101856.71;;;20.02;39.79
62926;BME280;55732;52.248;-0.844;2023-05-23T12:19:00;101855.06;;;19.95;39.95
62926;BME280;55732;52.248;-0.844;2023-05-23T12:21:47;101859.59;;;19.93;40.18
62926;BME280;55732;52.248;-0.844;2023-05-23T12:24:22;101853.23;;;19.97;39.96
62926;BME280;55732;52.248;-0.844;2023-05-23T12:26:49;101854.83;;;20.06;40.00
62926;BME280;55732;52.248;-0.844;2023-05-23T12:29:17;101853.30;;;20.10;40.47
62926;BME280;55732;52.248;-0.844;2023-05-23T12:31:43;101853.17;;;20.08;40.63
62926;BME280;55732;52.248;-0.844;2023-05-23T12:34:10;101857.22;;;20.12;40.60
62926;BME280;55732;52.248;-0.844;2023-05-23T12:36:35;101860.15;;;20.17;40.15
62926;BME280;55732;52.248;-0.844;2023-05-23T12:39:03;101855.86;;;20.17;40.14
62926;BME280;55732;52.248;-0.844;2023-05-23T12:41:33;101851.41;;;20.25;40.54
62926;BME280;55732;52.248;-0.844;2023-05-23T12:43:59;101850.33;;;20.34;40.72
62926;BME280;55732;52.248;-0.844;2023-05-23T12:46:26;101846.71;;;20.45;40.30
62926;BME280;55732;52.248;-0.844;2023-05-23T12:48:52;101844.32;;;20.48;39.84
62926;BME280;55732;52.248;-0.844;2023-05-23T12:51:18;101839.67;;;20.56;39.81
62926;BME280;55732;52.248;-0.844;2023-05-23T12:53:44;101837.66;;;20.66;39.55
62926;BME280;55732;52.248;-0.844;2023-05-23T12:56:09;101846.10;;;20.80;39.33
62926;BME280;55732;52.248;-0.844;2023-05-23T12:58:35;101845.71;;;20.88;39.48
62926;BME280;55732;52.248;-0.844;2023-05-23T13:01:00;101847.09;;;20.98;39.89
62926;BME280;55732;52.248;-0.844;2023-05-23T13:03:27;101846.35;;;21.14;39.34
62926;BME280;55732;52.248;-0.844;2023-05-23T13:05:53;101843.17;;;21.20;38.58